Time;durP1;ratioP1;P1;durP2;ratioP2;P2;SDS_P1;SDS_P2;PMS_P1;PMS_P2;Temp;Humidity;BMP_temperature;BMP_pressure;BME280_temperature;BME280_humidity;BME280_pressure;Samples;Min_cycle;Max_cycle;Signal;HPM_P1;HPM_P2
2021/08/22 00:01:24;;;;;;;8.45;5.90;;;20.90;74.60;;;;;;10331126;28;20041;-48
2021/08/22 00:06:25;;;;;;;7.30;6.30;;;20.90;74.60;;;;;;10332114;28;20065;-49
2021/08/22 00:11:26;;;;;;;6.68;5.97;;;20.90;74.50;;;;;;10334437;28;20072;-48
2021/08/22 00:16:26;;;;;;;7.07;6.35;;;20.90;74.50;;;;;;10340236;28;20093;-46
2021/08/22 00:21:29;;;;;;;6.55;5.95;;;20.90;74.60;;;;;;10343047;28;20069;-47
2021/08/22 00:26:30;;;;;;;7.07;6.38;;;20.90;74.60;;;;;;10339820;28;20033;-48
2021/08/22 00:31:31;;;;;;;6.20;5.60;;;20.90;74.60;;;;;;10340461;28;20387;-48
2021/08/22 00:36:32;;;;;;;6.28;5.68;;;20.90;74.60;;;;;;10339448;28;20041;-48
2021/08/22 00:41:32;;;;;;;6.50;5.80;;;20.90;74.70;;;;;;10339197;28;20046;-47
2021/08/22 00:46:35;;;;;;;6.45;5.85;;;20.80;74.60;;;;;;10338075;28;20069;-48
2021/08/22 00:51:39;;;;;;;7.07;6.32;;;20.90;74.60;;;;;;10350811;28;20474;-48
2021/08/22 00:56:40;;;;;;;9.27;6.70;;;20.90;74.60;;;;;;10337864;28;20054;-48
2021/08/22 01:01:45;;;;;;;7.20;6.18;;;20.80;75.30;;;;;;10338614;28;20041;-48
2021/08/22 01:07:20;;;;;;;8.02;6.90;;;20.90;74.70;;;;;;10338874;28;20022;-51
2021/08/22 01:12:29;;;;;;;6.07;5.47;;;20.90;74.50;;;;;;10366185;28;20022;-49
2021/08/22 01:17:40;;;;;;;6.35;5.72;;;20.90;74.60;;;;;;10371135;28;20548;-48
2021/08/22 01:22:43;;;;;;;6.43;5.75;;;20.90;74.60;;;;;;10335472;28;20041;-47
2021/08/22 01:27:45;;;;;;;6.80;6.10;;;20.90;74.60;;;;;;10320317;28;20548;-49
2021/08/22 01:32:49;;;;;;;7.32;6.63;;;20.90;74.70;;;;;;10336253;28;20030;-51
2021/08/22 01:37:53;;;;;;;7.03;6.32;;;20.90;74.70;;;;;;10337132;28;20061;-48
2021/08/22 01:42:54;;;;;;;5.78;5.20;;;20.80;74.70;;;;;;10335901;28;20046;-49
2021/08/22 01:47:55;;;;;;;6.68;5.88;;;20.90;74.80;;;;;;10336740;28;20030;-49
2021/08/22 01:53:02;;;;;;;6.22;5.63;;;20.90;74.80;;;;;;10336573;28;20041;-48
2021/08/22 01:58:04;;;;;;;5.82;5.28;;;20.80;74.90;;;;;;10336962;28;20066;-47
2021/08/22 02:03:37;;;;;;;5.90;5.30;;;20.80;74.90;;;;;;10336305;28;20034;-48
2021/08/22 02:08:39;;;;;;;6.70;6.10;;;20.90;74.80;;;;;;10352868;28;20100;-49
2021/08/22 02:13:43;;;;;;;7.13;6.43;;;20.80;74.90;;;;;;10332904;28;20067;-49
2021/08/22 02:18:45;;;;;;;6.90;5.88;;;20.80;74.80;;;;;;10375199;28;20037;-47
2021/08/22 02:23:52;;;;;;;6.55;5.95;;;20.80;75.10;;;;;;10372960;28;20494;-47
2021/08/22 02:28:58;;;;;;;6.65;6.05;;;20.80;75.00;;;;;;10365142;28;20030;-49
2021/08/22 02:33:59;;;;;;;6.93;6.07;;;20.80;75.00;;;;;;10375304;28;20037;-48
2021/08/22 02:39:00;;;;;;;6.28;5.65;;;20.80;75.10;;;;;;10375432;28;20493;-49
2021/08/22 02:44:01;;;;;;;6.57;5.97;;;20.80;75.10;;;;;;10375386;28;20045;-47
2021/08/22 02:49:02;;;;;;;6.63;5.95;;;20.80;74.80;;;;;;10375096;28;20398;-47
2021/08/22 02:54:02;;;;;;;6.38;5.57;;;20.80;74.80;;;;;;10374742;28;20390;-47
2021/08/22 02:59:03;;;;;;;6.00;5.32;;;20.80;74.70;;;;;;10374793;28;20533;-47
2021/08/22 03:04:05;;;;;;;6.82;5.63;;;20.80;74.80;;;;;;10374406;28;20056;-48
2021/08/22 03:09:06;;;;;;;6.72;6.03;;;20.80;74.70;;;;;;10374404;28;20100;-47
2021/08/22 03:14:07;;;;;;;6.88;5.80;;;20.80;74.70;;;;;;10374025;28;20104;-49
2021/08/22 03:19:07;;;;;;;6.97;6.10;;;20.80;74.70;;;;;;10354578;28;20027;-47
2021/08/22 03:24:08;;;;;;;6.15;5.38;;;20.80;75.00;;;;;;10333328;28;20088;-48
2021/08/22 03:29:09;;;;;;;5.43;4.93;;;20.80;75.00;;;;;;10333099;28;20034;-47
2021/08/22 03:34:10;;;;;;;6.30;5.18;;;20.80;75.10;;;;;;10332724;28;20030;-48
2021/08/22 03:39:10;;;;;;;5.90;5.30;;;20.80;75.20;;;;;;10332872;28;20105;-48
2021/08/22 03:44:11;;;;;;;6.25;5.35;;;20.80;75.20;;;;;;10332427;28;20133;-48
2021/08/22 03:49:12;;;;;;;5.78;5.18;;;20.80;75.30;;;;;;10331814;28;20061;-49
2021/08/22 03:54:13;;;;;;;6.80;6.05;;;20.80;75.30;;;;;;10332242;28;20433;-47
2021/08/22 03:59:13;;;;;;;6.57;5.97;;;20.80;75.20;;;;;;10357431;28;20028;-49
2021/08/22 04:04:14;;;;;;;5.95;5.38;;;20.80;75.30;;;;;;10332421;28;20046;-47
2021/08/22 04:09:17;;;;;;;5.82;5.32;;;20.80;75.30;;;;;;10332014;28;20109;-48
2021/08/22 04:14:18;;;;;;;6.30;5.70;;;20.80;75.20;;;;;;10331837;28;20035;-49
2021/08/22 04:19:19;;;;;;;6.47;5.88;;;20.80;75.10;;;;;;10335121;28;20026;-47
2021/08/22 04:24:20;;;;;;;6.35;5.75;;;20.80;75.10;;;;;;10330587;28;20030;-50
2021/08/22 04:29:21;;;;;;;6.10;5.47;;;20.80;75.20;;;;;;10331663;28;20077;-48
2021/08/22 04:34:21;;;;;;;6.50;5.80;;;20.80;75.20;;;;;;10330707;28;20036;-48
2021/08/22 04:39:22;;;;;;;6.32;5.45;;;20.80;75.20;;;;;;10329365;28;20037;-47
2021/08/22 04:44:23;;;;;;;6.32;5.60;;;20.80;75.10;;;;;;10331499;28;20125;-47
2021/08/22 04:49:23;;;;;;;6.90;6.20;;;20.80;75.10;;;;;;10356663;28;20113;-48
2021/08/22 04:54:25;;;;;;;6.63;5.88;;;20.70;75.00;;;;;;10331757;28;20037;-49
2021/08/22 04:59:26;;;;;;;6.38;5.78;;;20.70;75.10;;;;;;10337090;28;20056;-47
2021/08/22 05:04:28;;;;;;;7.32;6.25;;;20.70;75.00;;;;;;10339258;28;20113;-47
2021/08/22 05:09:30;;;;;;;7.45;5.32;;;20.70;75.10;;;;;;10338886;28;20038;-48
2021/08/22 05:14:35;;;;;;;7.43;6.72;;;20.80;75.10;;;;;;10350344;28;20034;-47
2021/08/22 05:19:36;;;;;;;7.22;6.32;;;20.80;75.30;;;;;;10340974;28;20031;-49
2021/08/22 05:24:37;;;;;;;6.38;5.65;;;20.70;75.00;;;;;;10338474;28;20057;-48
2021/08/22 05:29:37;;;;;;;5.78;5.18;;;20.70;74.90;;;;;;10338177;28;20113;-48
2021/08/22 05:34:38;;;;;;;6.32;5.72;;;20.70;75.00;;;;;;10363093;28;20042;-49
2021/08/22 05:39:39;;;;;;;7.18;6.43;;;20.70;75.10;;;;;;10336604;28;20081;-49
2021/08/22 05:44:39;;;;;;;7.35;6.10;;;20.70;75.10;;;;;;10337161;28;20137;-49
2021/08/22 05:49:40;;;;;;;6.97;6.18;;;20.70;75.00;;;;;;10337314;28;20040;-48
2021/08/22 05:54:41;;;;;;;6.40;5.32;;;20.70;75.20;;;;;;10348952;28;20066;-47
2021/08/22 05:59:41;;;;;;;6.57;5.85;;;20.70;75.00;;;;;;10336913;28;20145;-50
2021/08/22 06:04:42;;;;;;;8.65;6.20;;;20.70;75.00;;;;;;10336843;28;20497;-47
2021/08/22 06:09:43;;;;;;;9.75;6.53;;;20.70;74.90;;;;;;10336231;28;20487;-47
2021/08/22 06:14:44;;;;;;;7.20;6.10;;;20.70;74.80;;;;;;10336416;28;20070;-47
2021/08/22 06:19:44;;;;;;;9.68;6.65;;;20.70;74.80;;;;;;10337851;28;20034;-48
2021/08/22 06:24:45;;;;;;;6.65;6.05;;;20.70;74.80;;;;;;10345136;28;20117;-47
2021/08/22 06:29:46;;;;;;;7.57;6.00;;;20.70;74.80;;;;;;10373403;28;20033;-47
2021/08/22 06:34:46;;;;;;;7.00;6.25;;;20.70;75.10;;;;;;10375974;28;20032;-48
2021/08/22 06:39:48;;;;;;;7.20;6.35;;;20.70;75.00;;;;;;10374636;28;20109;-48
2021/08/22 06:44:49;;;;;;;7.90;7.10;;;20.70;75.00;;;;;;10375643;28;20042;-49
2021/08/22 06:49:50;;;;;;;7.97;7.18;;;20.70;74.80;;;;;;10375489;28;20442;-48
2021/08/22 06:54:51;;;;;;;6.80;6.10;;;20.70;74.70;;;;;;10375528;28;20108;-48
2021/08/22 06:59:52;;;;;;;7.75;6.60;;;20.70;74.70;;;;;;10375223;28;20109;-47
2021/08/22 07:04:52;;;;;;;7.35;6.22;;;20.70;74.60;;;;;;10375359;28;20072;-48
2021/08/22 07:09:53;;;;;;;7.63;6.32;;;20.70;74.60;;;;;;10374948;28;20125;-48
2021/08/22 07:14:54;;;;;;;7.35;5.57;;;20.70;74.50;;;;;;10374762;28;20069;-48
2021/08/22 07:19:55;;;;;;;6.75;6.05;;;20.70;74.60;;;;;;10348181;28;20046;-47
2021/08/22 07:24:58;;;;;;;7.45;6.05;;;20.70;74.70;;;;;;10333789;28;20030;-47
2021/08/22 07:29:58;;;;;;;6.30;5.70;;;20.70;74.50;;;;;;10334168;28;20030;-48
2021/08/22 07:34:59;;;;;;;6.97;6.10;;;20.70;74.40;;;;;;10333529;28;20113;-47
2021/08/22 07:40:00;;;;;;;7.18;6.47;;;20.70;74.60;;;;;;10333267;28;20105;-47
2021/08/22 07:45:02;;;;;;;7.28;6.43;;;20.70;74.50;;;;;;10333379;28;20376;-46
2021/08/22 07:50:04;;;;;;;8.20;7.03;;;20.70;74.90;;;;;;10332891;28;20034;-48
2021/08/22 07:55:05;;;;;;;7.75;6.90;;;20.70;74.70;;;;;;10332927;28;20030;-50
2021/08/22 08:00:06;;;;;;;7.00;6.13;;;20.70;74.30;;;;;;10331657;28;20036;-48
2021/08/22 08:05:07;;;;;;;7.35;6.65;;;20.70;74.30;;;;;;10333131;28;20370;-48
2021/08/22 08:10:09;;;;;;;7.18;6.47;;;20.70;74.20;;;;;;10332636;28;20061;-47
2021/08/22 08:15:11;;;;;;;8.77;7.32;;;20.80;74.30;;;;;;10332552;28;20041;-48
2021/08/22 08:20:13;;;;;;;7.90;6.80;;;20.70;74.30;;;;;;10335951;28;20035;-48
2021/08/22 08:25:13;;;;;;;7.68;6.78;;;20.70;74.30;;;;;;10332409;28;20046;-49
2021/08/22 08:30:14;;;;;;;7.55;6.57;;;20.70;74.30;;;;;;10331045;28;20566;-48
2021/08/22 08:35:15;;;;;;;7.40;6.70;;;20.80;74.40;;;;;;10339319;28;20069;-48
2021/08/22 08:40:22;;;;;;;7.88;6.68;;;20.70;74.40;;;;;;10340142;28;20038;-48
2021/08/22 08:46:02;;;;;;;9.57;7.28;;;20.70;74.60;;;;;;10352173;28;20117;-48
2021/08/22 08:51:45;;;;;;;7.60;6.50;;;20.80;74.70;;;;;;10364835;28;20113;-47
2021/08/22 08:56:47;;;;;;;8.20;6.72;;;20.80;74.90;;;;;;10368632;28;20061;-47
2021/08/22 09:01:48;;;;;;;6.53;5.75;;;20.80;74.90;;;;;;10379717;28;20030;-48
2021/08/22 09:07:27;;;;;;;6.80;6.10;;;20.80;75.00;;;;;;10343828;28;20599;-49
2021/08/22 09:13:05;;;;;;;7.40;6.67;;;20.80;74.90;;;;;;10366848;28;20068;-48
2021/08/22 09:19:12;;;;;;;7.75;6.93;;;20.80;74.90;;;;;;10368724;28;20476;-52
2021/08/22 09:24:18;;;;;;;7.10;6.40;;;20.80;74.90;;;;;;10362554;28;20038;-48
2021/08/22 09:29:52;;;;;;;6.90;6.20;;;20.80;75.00;;;;;;10372262;28;20035;-48
2021/08/22 09:35:49;;;;;;;7.38;6.57;;;20.80;74.80;;;;;;10378401;28;20030;-48
2021/08/22 09:40:59;;;;;;;6.78;5.57;;;20.90;74.90;;;;;;10363872;28;20116;-48
2021/08/22 09:46:40;;;;;;;8.18;6.75;;;20.80;74.90;;;;;;10365717;28;20031;-48
2021/08/22 09:51:48;;;;;;;7.80;7.00;;;20.90;74.90;;;;;;10369041;28;20504;-48
2021/08/22 09:57:42;;;;;;;7.63;6.82;;;20.80;74.90;;;;;;10377957;28;20026;-49
2021/08/22 10:03:28;;;;;;;7.97;7.15;;;20.80;74.80;;;;;;10377753;28;21507;-48
2021/08/22 10:08:41;;;;;;;7.57;6.78;;;20.80;74.80;;;;;;10377226;28;20126;-48
2021/08/22 10:13:41;;;;;;;7.80;6.60;;;20.80;74.80;;;;;;10376908;28;20030;-49
2021/08/22 10:18:42;;;;;;;7.47;6.53;;;20.80;74.90;;;;;;10360874;28;20533;-47
2021/08/22 10:23:46;;;;;;;7.85;7.05;;;20.80;74.90;;;;;;10334938;28;20058;-48
2021/08/22 10:28:56;;;;;;;7.03;6.32;;;20.80;74.90;;;;;;10335943;28;20031;-48
2021/08/22 10:34:15;;;;;;;7.13;6.18;;;20.80;74.90;;;;;;10335727;28;20029;-48
2021/08/22 10:39:27;;;;;;;7.53;6.82;;;20.90;74.90;;;;;;10335590;28;20069;-47
2021/08/22 10:44:34;;;;;;;7.47;6.75;;;20.80;75.50;;;;;;10335218;28;20495;-47
2021/08/22 10:49:55;;;;;;;8.13;6.13;;;20.90;75.10;;;;;;10335122;28;20487;-47
2021/08/22 10:55:14;;;;;;;7.07;6.38;;;20.90;74.90;;;;;;10334721;28;20089;-47
2021/08/22 11:00:27;;;;;;;7.97;7.17;;;20.90;75.00;;;;;;10334912;28;20356;-46
2021/08/22 11:05:37;;;;;;;7.10;6.40;;;20.90;75.00;;;;;;10334612;28;20578;-48
2021/08/22 11:10:37;;;;;;;6.88;6.22;;;20.90;75.00;;;;;;10334389;28;20034;-49
2021/08/22 11:15:39;;;;;;;7.68;6.97;;;20.90;75.00;;;;;;10332800;28;20407;-49
2021/08/22 11:20:43;;;;;;;6.55;5.55;;;21.00;75.10;;;;;;10336960;28;20084;-46
2021/08/22 11:25:57;;;;;;;6.60;5.53;;;21.00;74.90;;;;;;10333373;28;20026;-47
2021/08/22 11:30:58;;;;;;;6.82;6.13;;;21.00;75.00;;;;;;10333840;28;20475;-47
2021/08/22 11:36:03;;;;;;;7.80;6.30;;;21.10;74.90;;;;;;10333411;28;20038;-47
2021/08/22 11:41:04;;;;;;;7.22;6.53;;;21.10;74.90;;;;;;10333000;28;20039;-48
2021/08/22 11:46:16;;;;;;;7.30;6.50;;;21.10;74.70;;;;;;10333409;28;20041;-47
2021/08/22 11:51:16;;;;;;;6.50;5.80;;;21.10;74.60;;;;;;10361941;28;20129;-49
2021/08/22 11:56:23;;;;;;;6.70;5.93;;;21.10;74.90;;;;;;10372124;28;20136;-48
2021/08/22 12:01:26;;;;;;;7.10;6.40;;;21.20;74.80;;;;;;10373616;28;20033;-47
2021/08/22 12:06:31;;;;;;;6.65;5.95;;;21.20;74.80;;;;;;10372730;28;20057;-48
2021/08/22 12:11:32;;;;;;;6.30;5.70;;;21.20;74.60;;;;;;10373135;28;20026;-47
2021/08/22 12:16:34;;;;;;;7.00;6.18;;;21.20;74.60;;;;;;10373017;28;20028;-46
2021/08/22 12:21:35;;;;;;;7.57;6.22;;;21.20;74.50;;;;;;10333985;28;20018;-47
2021/08/22 12:26:35;;;;;;;6.75;6.10;;;21.20;74.50;;;;;;10331894;28;20109;-48
2021/08/22 12:31:39;;;;;;;6.15;5.55;;;21.20;74.60;;;;;;10332423;28;20566;-47
2021/08/22 12:36:43;;;;;;;7.07;6.07;;;21.20;74.70;;;;;;10332255;28;20378;-47
2021/08/22 12:41:53;;;;;;;7.05;6.40;;;21.30;74.80;;;;;;10330707;28;20050;-48
2021/08/22 12:47:00;;;;;;;6.95;6.25;;;21.30;74.70;;;;;;10332166;28;20030;-47
2021/08/22 12:52:05;;;;;;;6.85;6.18;;;21.30;74.50;;;;;;10331494;28;20042;-47
2021/08/22 12:57:06;;;;;;;6.47;5.85;;;21.30;74.50;;;;;;10330909;28;20531;-48
2021/08/22 13:02:07;;;;;;;7.43;6.38;;;21.30;74.50;;;;;;10331829;28;20034;-49
2021/08/22 13:07:08;;;;;;;7.82;7.07;;;21.20;74.50;;;;;;10331550;28;20069;-49
2021/08/22 13:12:09;;;;;;;7.63;6.05;;;21.20;74.60;;;;;;10331406;28;20038;-47
2021/08/22 13:17:09;;;;;;;6.93;6.22;;;21.20;74.70;;;;;;10333330;28;20030;-47
2021/08/22 13:22:10;;;;;;;7.45;6.75;;;21.20;74.70;;;;;;10337571;28;20398;-49
2021/08/22 13:27:10;;;;;;;6.97;6.28;;;21.20;74.70;;;;;;10338343;28;20070;-48
2021/08/22 13:32:11;;;;;;;7.57;6.82;;;21.20;74.80;;;;;;10338019;28;20058;-48
2021/08/22 13:37:14;;;;;;;7.07;6.38;;;21.20;74.90;;;;;;10338183;28;20520;-49
2021/08/22 13:42:15;;;;;;;7.63;6.10;;;21.20;74.80;;;;;;10337494;28;20109;-48
2021/08/22 13:47:16;;;;;;;6.53;5.93;;;21.20;74.90;;;;;;10337691;28;20050;-49
2021/08/22 13:52:17;;;;;;;6.20;5.50;;;21.20;75.10;;;;;;10336319;28;20030;-48
2021/08/22 13:57:17;;;;;;;7.70;5.85;;;21.10;74.90;;;;;;10320063;28;20106;-48
2021/08/22 14:02:18;;;;;;;6.72;6.05;;;21.10;74.90;;;;;;10337189;28;20542;-48
2021/08/22 14:07:18;;;;;;;5.80;5.20;;;21.20;75.00;;;;;;10336910;28;20046;-47
2021/08/22 14:12:19;;;;;;;6.60;5.88;;;21.20;75.00;;;;;;10337030;28;20457;-47
2021/08/22 14:17:20;;;;;;;5.88;5.28;;;21.10;74.90;;;;;;10338527;28;20028;-49
2021/08/22 14:22:21;;;;;;;6.30;5.70;;;21.10;74.90;;;;;;10336671;28;20061;-48
2021/08/22 14:27:21;;;;;;;6.38;5.78;;;21.10;75.00;;;;;;10336167;28;20030;-48
2021/08/22 14:32:22;;;;;;;6.55;5.85;;;21.10;74.90;;;;;;10335540;28;20037;-47
2021/08/22 14:37:23;;;;;;;5.35;4.85;;;21.10;75.00;;;;;;10335382;28;20062;-48
2021/08/22 14:42:24;;;;;;;5.88;5.32;;;21.10;75.00;;;;;;10335349;28;20137;-48
2021/08/22 14:47:24;;;;;;;5.70;5.07;;;21.10;75.00;;;;;;10335173;28;20042;-47
2021/08/22 14:52:26;;;;;;;7.18;5.80;;;21.10;75.00;;;;;;10334877;28;20104;-47
2021/08/22 14:57:27;;;;;;;6.00;4.97;;;21.10;75.00;;;;;;10335022;28;20031;-47
2021/08/22 15:02:27;;;;;;;5.93;5.30;;;21.10;75.00;;;;;;10334460;28;20035;-47
2021/08/22 15:07:28;;;;;;;5.18;4.65;;;21.10;75.00;;;;;;10334734;28;20515;-47
2021/08/22 15:12:29;;;;;;;5.30;4.80;;;21.10;75.00;;;;;;10334153;28;20072;-47
2021/08/22 15:17:30;;;;;;;5.57;5.07;;;21.10;75.00;;;;;;10337032;28;20026;-47
2021/08/22 15:22:30;;;;;;;5.85;5.35;;;21.10;75.00;;;;;;10334072;28;20061;-47
2021/08/22 15:27:31;;;;;;;5.57;4.78;;;21.10;75.00;;;;;;10353101;28;20061;-49
2021/08/22 15:32:32;;;;;;;5.93;5.32;;;21.10;75.10;;;;;;10374316;28;20064;-48
2021/08/22 15:37:33;;;;;;;5.63;5.03;;;21.10;75.00;;;;;;10374119;28;20033;-46
2021/08/22 15:42:34;;;;;;;5.75;5.18;;;21.10;75.00;;;;;;10373133;28;20041;-48
2021/08/22 15:47:34;;;;;;;4.70;4.30;;;21.10;75.00;;;;;;10373852;28;20069;-46
2021/08/22 15:52:42;;;;;;;6.45;4.78;;;21.10;75.10;;;;;;10373581;28;20057;-49
2021/08/22 15:57:43;;;;;;;5.80;4.57;;;21.10;75.00;;;;;;10373644;28;20038;-47
2021/08/22 16:02:44;;;;;;;5.55;4.95;;;21.10;75.10;;;;;;10372212;28;20491;-48
2021/08/22 16:07:45;;;;;;;5.55;4.47;;;21.10;75.00;;;;;;10373354;28;20036;-48
2021/08/22 16:12:45;;;;;;;5.30;4.78;;;21.10;75.00;;;;;;10372957;28;20105;-47
2021/08/22 16:17:46;;;;;;;5.40;4.68;;;21.10;75.00;;;;;;10364701;28;20034;-47
2021/08/22 16:22:47;;;;;;;5.10;4.60;;;21.10;74.90;;;;;;10332320;28;20447;-48
2021/08/22 16:27:47;;;;;;;5.22;4.72;;;21.10;74.90;;;;;;10331249;28;20027;-49
2021/08/22 16:32:48;;;;;;;6.00;5.13;;;21.10;75.00;;;;;;10345247;28;20523;-47
2021/08/22 16:37:49;;;;;;;5.50;4.68;;;21.10;75.10;;;;;;10332231;28;20487;-47
2021/08/22 16:42:49;;;;;;;4.65;4.25;;;21.10;75.10;;;;;;10330620;28;20125;-47
2021/08/22 16:47:50;;;;;;;5.38;4.50;;;21.10;75.10;;;;;;10332067;28;20030;-47
2021/08/22 16:52:51;;;;;;;5.82;5.00;;;21.10;75.40;;;;;;10333246;28;20069;-49
2021/08/22 16:57:51;;;;;;;4.97;4.13;;;21.10;75.20;;;;;;10339513;28;20486;-48
2021/08/22 17:02:52;;;;;;;5.22;4.43;;;21.10;75.20;;;;;;10339615;28;20034;-46
2021/08/22 17:07:53;;;;;;;4.85;4.35;;;21.10;75.20;;;;;;10347010;28;20037;-48
2021/08/22 17:12:55;;;;;;;4.65;4.25;;;21.10;75.20;;;;;;10379455;28;20169;-48
2021/08/22 17:17:55;;;;;;;4.10;3.70;;;21.10;75.20;;;;;;10369943;28;20801;-49
2021/08/22 17:22:56;;;;;;;5.18;4.38;;;21.10;75.20;;;;;;10338572;28;20064;-47
2021/08/22 17:27:57;;;;;;;5.65;3.88;;;21.10;75.20;;;;;;10338600;28;20398;-47
2021/08/22 17:32:57;;;;;;;4.38;3.97;;;21.10;75.10;;;;;;10350144;28;20140;-48
2021/08/22 17:37:58;;;;;;;5.03;4.07;;;21.10;75.10;;;;;;10337945;28;20122;-49
2021/08/22 17:43:03;;;;;;;4.57;3.85;;;21.10;75.10;;;;;;10337612;28;20411;-48
2021/08/22 17:48:04;;;;;;;5.45;4.85;;;21.10;75.10;;;;;;10337799;28;20040;-47
2021/08/22 17:53:05;;;;;;;4.10;3.70;;;21.10;75.00;;;;;;10336159;28;20034;-48
2021/08/22 17:58:06;;;;;;;4.00;3.60;;;21.10;75.00;;;;;;10337262;28;20062;-49
2021/08/22 18:03:07;;;;;;;4.18;3.67;;;21.10;75.00;;;;;;10336013;28;20034;-46
2021/08/22 18:08:08;;;;;;;4.63;3.85;;;21.10;75.00;;;;;;10336082;28;20069;-46
2021/08/22 18:13:08;;;;;;;5.43;4.53;;;21.10;75.00;;;;;;10336564;28;20030;-47
2021/08/22 18:18:09;;;;;;;4.38;3.60;;;21.10;75.00;;;;;;10338883;28;20062;-47
2021/08/22 18:23:10;;;;;;;4.97;4.18;;;21.10;75.00;;;;;;10336355;28;20100;-47
2021/08/22 18:28:10;;;;;;;5.68;3.92;;;21.00;74.90;;;;;;10336043;28;20092;-50
2021/08/22 18:33:12;;;;;;;4.90;3.95;;;21.10;74.90;;;;;;10336023;28;20058;-47
2021/08/22 18:38:13;;;;;;;4.40;3.90;;;21.00;74.80;;;;;;10335803;28;20026;-48
2021/08/22 18:43:13;;;;;;;4.28;3.85;;;21.00;74.80;;;;;;10334083;28;20065;-47
2021/08/22 18:48:14;;;;;;;5.40;4.85;;;21.00;74.80;;;;;;10335529;28;20510;-47
2021/08/22 18:53:16;;;;;;;4.60;4.05;;;21.10;74.80;;;;;;10347084;28;20042;-47
2021/08/22 18:58:16;;;;;;;4.07;3.67;;;21.00;74.70;;;;;;10333643;28;20085;-46
2021/08/22 19:03:17;;;;;;;4.20;3.80;;;21.00;74.70;;;;;;10335005;28;20109;-48
2021/08/22 19:08:18;;;;;;;5.32;4.00;;;21.00;74.70;;;;;;10334819;28;20534;-47
2021/08/22 19:13:19;;;;;;;5.60;4.13;;;21.00;74.70;;;;;;10333997;28;20691;-47
2021/08/22 19:18:20;;;;;;;4.47;3.95;;;21.00;74.70;;;;;;10335928;28;20049;-47
2021/08/22 19:23:21;;;;;;;4.75;4.18;;;21.00;74.70;;;;;;10329720;28;20031;-46
2021/08/22 19:28:22;;;;;;;4.75;4.07;;;21.00;74.70;;;;;;10371495;28;20104;-47
2021/08/22 19:33:24;;;;;;;5.10;4.20;;;21.00;74.80;;;;;;10373601;28;20096;-46
2021/08/22 19:38:25;;;;;;;4.90;3.97;;;21.00;74.80;;;;;;10374093;28;20074;-50
2021/08/22 19:43:27;;;;;;;4.55;4.13;;;21.00;74.70;;;;;;10373228;28;20054;-48
2021/08/22 19:48:27;;;;;;;5.22;4.50;;;21.00;74.70;;;;;;10373505;28;20034;-48
2021/08/22 19:53:29;;;;;;;4.82;4.15;;;21.00;74.60;;;;;;10372978;28;20046;-47
2021/08/22 19:58:29;;;;;;;4.15;3.63;;;21.00;74.60;;;;;;10371776;28;20474;-48
2021/08/22 20:03:30;;;;;;;4.43;4.00;;;21.00;74.60;;;;;;10373218;28;20113;-47
2021/08/22 20:08:31;;;;;;;4.20;3.80;;;21.00;74.60;;;;;;10372767;28;20360;-48
2021/08/22 20:13:32;;;;;;;4.03;3.53;;;21.00;74.70;;;;;;10371346;28;20034;-47
2021/08/22 20:18:33;;;;;;;5.63;4.28;;;21.00;74.70;;;;;;10336393;28;20022;-47
2021/08/22 20:23:34;;;;;;;4.15;3.75;;;21.00;74.70;;;;;;10331709;28;20498;-47
2021/08/22 20:28:35;;;;;;;4.70;4.03;;;21.00;74.70;;;;;;10334682;28;20034;-48
2021/08/22 20:33:35;;;;;;;4.32;3.92;;;21.00;74.60;;;;;;10339913;28;20528;-46
2021/08/22 20:38:36;;;;;;;4.18;3.78;;;21.00;74.60;;;;;;10339763;28;20042;-47
2021/08/22 20:43:39;;;;;;;5.25;4.63;;;21.00;74.70;;;;;;10339925;28;20507;-48
2021/08/22 20:48:40;;;;;;;4.55;4.05;;;21.00;74.70;;;;;;10339362;28;20022;-47
2021/08/22 20:53:40;;;;;;;4.15;3.70;;;21.00;74.70;;;;;;10339085;28;20092;-48
2021/08/22 20:58:41;;;;;;;4.18;3.78;;;21.00;74.70;;;;;;10339617;28;20051;-47
2021/08/22 21:03:42;;;;;;;4.15;3.75;;;21.00;74.80;;;;;;10339003;28;20057;-48
2021/08/22 21:08:42;;;;;;;4.80;4.30;;;21.00;74.60;;;;;;10338722;28;20080;-47
2021/08/22 21:13:43;;;;;;;4.15;3.72;;;21.00;74.60;;;;;;10338331;28;20129;-47
2021/08/22 21:18:44;;;;;;;4.78;4.28;;;21.00;74.70;;;;;;10339004;28;20058;-47
2021/08/22 21:23:44;;;;;;;3.92;3.53;;;21.00;74.60;;;;;;10338036;28;20508;-47
2021/08/22 21:28:45;;;;;;;4.70;3.88;;;21.00;74.70;;;;;;10337975;28;20109;-48
2021/08/22 21:33:46;;;;;;;3.97;3.55;;;21.00;74.70;;;;;;10337836;28;20124;-47
2021/08/22 21:38:46;;;;;;;4.47;4.07;;;21.00;74.80;;;;;;10336543;28;20156;-46
2021/08/22 21:43:48;;;;;;;4.90;3.92;;;21.00;74.80;;;;;;10336823;28;20542;-48
2021/08/22 21:48:50;;;;;;;4.65;4.25;;;20.90;74.70;;;;;;10337604;28;20490;-48
2021/08/22 21:53:50;;;;;;;4.30;3.90;;;21.00;74.70;;;;;;10336798;28;20046;-47
2021/08/22 21:58:51;;;;;;;4.88;3.67;;;21.00;74.80;;;;;;10336745;28;20487;-48
2021/08/22 22:03:52;;;;;;;4.68;3.85;;;20.90;74.70;;;;;;10335487;28;20105;-47
2021/08/22 22:08:53;;;;;;;5.18;3.88;;;20.90;74.70;;;;;;10336348;28;20057;-48
2021/08/22 22:13:53;;;;;;;5.13;4.30;;;20.90;74.80;;;;;;10336445;28;20113;-48
2021/08/22 22:18:54;;;;;;;3.88;3.47;;;20.90;74.90;;;;;;10338837;28;20440;-47
2021/08/22 22:23:55;;;;;;;4.50;3.97;;;20.90;74.90;;;;;;10334853;28;20050;-47
2021/08/22 22:28:55;;;;;;;4.20;3.78;;;20.90;75.00;;;;;;10335696;28;20563;-46
2021/08/22 22:33:56;;;;;;;3.50;3.20;;;20.90;75.00;;;;;;10347100;28;20030;-47
2021/08/22 22:38:58;;;;;;;3.97;3.38;;;20.90;74.90;;;;;;10335358;28;20037;-47
2021/08/22 22:43:58;;;;;;;4.50;3.80;;;20.90;75.00;;;;;;10334759;28;20425;-47
2021/08/22 22:48:59;;;;;;;5.43;3.92;;;20.90;75.30;;;;;;10334979;28;20121;-48
2021/08/22 22:54:00;;;;;;;3.88;3.28;;;20.90;75.30;;;;;;10333177;28;20431;-47
2021/08/22 22:59:01;;;;;;;4.03;3.45;;;20.90;75.30;;;;;;10334510;28;20105;-48
2021/08/22 23:04:01;;;;;;;3.88;3.45;;;20.90;75.40;;;;;;10334399;28;20070;-46
2021/08/22 23:09:02;;;;;;;3.90;3.50;;;20.90;75.30;;;;;;10333917;28;20061;-51
2021/08/22 23:14:03;;;;;;;4.63;3.85;;;20.90;75.30;;;;;;10334175;28;20033;-48
2021/08/22 23:19:04;;;;;;;5.25;3.72;;;20.90;75.10;;;;;;10336177;28;20383;-47
2021/08/22 23:24:05;;;;;;;4.15;3.70;;;20.90;75.20;;;;;;10333546;28;20486;-46
2021/08/22 23:29:05;;;;;;;4.35;3.90;;;20.90;75.30;;;;;;10333556;28;20034;-48
2021/08/22 23:34:06;;;;;;;4.03;3.63;;;20.90;75.40;;;;;;10333143;28;20420;-47
2021/08/22 23:39:07;;;;;;;4.60;3.97;;;20.90;75.40;;;;;;10344888;28;20069;-47
2021/08/22 23:44:07;;;;;;;4.38;3.97;;;20.90;76.00;;;;;;10332660;28;20125;-46
2021/08/22 23:49:08;;;;;;;4.10;3.70;;;20.90;75.30;;;;;;10332728;28;20057;-48
2021/08/22 23:54:09;;;;;;;3.95;3.55;;;20.90;75.20;;;;;;10332426;28;20113;-47
2021/08/22 23:59:09;;;;;;;4.35;3.95;;;20.90;75.10;;;;;;10331288;28;20034;-48
